1993 HSK1493 (1993025S12136)


On this page: IBTrACS data - Map and Plots - Positions - Intensities - Original source data

Summary

Start Jan 25
End Feb 9
Basins SI
SP
LMI 35 kt
Sources jtwc_sh
neumann
In WMO? No
Previous storm 1993 LENA (SI)
Previous in basin 1993 HSK0993 (SP)
Concurrent storms 1993 EDWINA (SI)
1993 LENA (SI)
1993 HSK1493 (SP)
1993 LIN (SP)
1993 OLIVER (SP)
1993 MICK (SP)
Next in basin 1993 LIN (SP)
Next storm 1993 LIN (SP)

top of page IBTrACS Data: File Access

top of page HURSAT Data: File Access

Image of storm

top of page Plots:

Map of storm track will not appear if FTP is down
Time series of cyclone Maximum Sustained Wind will not appear if FTP is down
Time series of cyclone Minimum Central Pressure will not appear if FTP is down

top of page Track Data:Position

jtwc_sh neumann
Date Lat Lon Lat Lon
1993-01-25 00:00:00 -11.6 136.2 -11.6 136.2
1993-01-25 06:00:00 -12.0 136.6 -12.0 136.6
1993-01-25 12:00:00 -12.2 136.8 -12.2 136.8
1993-01-25 18:00:00 -12.4 137.0 -12.4 137.0
1993-01-26 00:00:00 -12.6 137.2 -12.6 137.2
1993-01-26 06:00:00 -13.4 137.0 -13.4 137.0
1993-01-26 12:00:00 -14.1 136.4 -14.1 136.4
1993-01-26 18:00:00 -14.2 135.7 -14.2 135.7
1993-01-27 00:00:00 -14.3 135.1 -14.3 135.1
1993-01-27 06:00:00 -14.5 134.4 -14.5 134.4
1993-01-27 12:00:00 -14.7 133.8 -14.7 133.8
1993-01-27 18:00:00 -15.0 133.2 -15.0 133.2
1993-01-28 00:00:00 -15.3 132.5 -15.3 132.5
1993-01-28 06:00:00 -15.5 131.8 -15.5 131.8
1993-01-28 12:00:00 -15.6 131.0 -15.6 131.0
1993-01-28 18:00:00 -15.7 130.2 -15.7 130.2
1993-01-29 00:00:00 -15.7 129.5 -15.7 129.5
1993-01-29 06:00:00 -16.1 129.0 -16.1 129.0
1993-01-29 12:00:00 -16.6 128.5 -16.6 128.5
1993-01-29 18:00:00 -17.1 127.9 -17.1 127.9
1993-01-30 00:00:00 -17.6 127.4 -17.6 127.4
1993-01-30 06:00:00 -18.1 126.9 -18.1 126.9
1993-01-30 12:00:00 -18.7 126.3 -18.7 126.3
1993-01-30 18:00:00 -19.2 125.8 -19.2 125.8
1993-01-31 00:00:00 -19.6 125.2 -19.6 125.2
jtwc_sh neumann
1993-01-31 06:00:00 -19.9 124.8 -19.9 124.8
1993-01-31 12:00:00 -20.2 124.4 -20.2 124.4
1993-01-31 18:00:00 -20.4 124.0 -20.4 124.0
1993-02-01 00:00:00 -20.6 123.6 -20.6 123.6
1993-02-01 06:00:00 -20.8 123.2 -20.8 123.2
1993-02-01 12:00:00 -21.1 122.7 -21.1 122.7
1993-02-01 18:00:00 -21.3 122.4 -21.3 122.4
1993-02-02 00:00:00 -21.5 121.9 -21.5 121.9
1993-02-02 06:00:00 -21.7 121.4 -21.7 121.4
1993-02-02 12:00:00 -21.9 121.0 -21.9 121.0
1993-02-02 18:00:00 -22.1 120.4 -22.1 120.4
1993-02-03 00:00:00 -22.2 119.9 -22.2 119.9
1993-02-03 06:00:00 -22.3 119.5 -22.3 119.5
1993-02-03 12:00:00 -22.5 118.9 -22.5 118.9
1993-02-03 18:00:00 -22.6 118.3 -22.6 118.3
1993-02-04 00:00:00 -22.8 117.7 -22.8 117.7
1993-02-04 06:00:00 -22.9 117.1 -22.9 117.1
1993-02-04 12:00:00 -23.0 116.4 -23.0 116.4
1993-02-04 18:00:00 -23.1 115.9 -23.1 115.9
1993-02-05 00:00:00 -23.2 115.4 -23.2 115.4
1993-02-05 06:00:00 -23.0 114.7 -23.0 114.7
1993-02-05 12:00:00 -22.9 114.1 -22.9 114.1
1993-02-05 18:00:00 -22.8 113.4 -22.8 113.4
1993-02-06 00:00:00 -22.7 112.7 -22.7 112.7
jtwc_sh neumann
1993-02-06 06:00:00 -22.6 111.9 -22.6 111.9
1993-02-06 12:00:00 -22.4 111.1 -22.4 111.1
1993-02-06 18:00:00 -22.1 109.9 -22.1 109.9
1993-02-07 00:00:00 -21.6 108.6 -21.6 108.6
1993-02-07 06:00:00 -21.4 107.0 -21.4 107.0
1993-02-07 12:00:00 -21.2 105.2 -21.2 105.2
1993-02-07 18:00:00 -21.1 103.3 -21.1 103.3
1993-02-08 00:00:00 -21.0 101.7 -21.0 101.7
1993-02-08 06:00:00 -21.1 100.5 -21.1 100.5
1993-02-08 12:00:00 -21.2 99.6 -21.2 99.6
1993-02-08 18:00:00 -21.5 98.5 -21.5 98.5
1993-02-09 00:00:00 -22.0 97.5 -22.0 97.5
1993-02-09 06:00:00 -22.4 96.4 -22.4 96.4
1993-02-09 12:00:00 -23.1 95.4 -23.1 95.4

top of pageTrack Data:Intensity

jtwc_sh neumann
Date Wind Pres Wind Pres
1993-01-25 00:00:00 20. 20.
1993-01-25 06:00:00 20. 20.
1993-01-25 12:00:00 20. 20.
1993-01-25 18:00:00 25. 25.
1993-01-26 00:00:00 30. 30.
1993-01-26 06:00:00 30. 30.
1993-01-26 12:00:00 30. 30.
1993-01-26 18:00:00 35. 35.
1993-01-27 00:00:00 35. 35.
1993-01-27 06:00:00 35. 35.
1993-01-27 12:00:00 30. 30.
1993-01-27 18:00:00 25. 25.
1993-01-28 00:00:00 25. 25.
1993-01-28 06:00:00 25. 25.
1993-01-28 12:00:00 20. 20.
1993-01-28 18:00:00 20. 20.
1993-01-29 00:00:00 20. 20.
1993-01-29 06:00:00 20. 20.
1993-01-29 12:00:00 25. 25.
1993-01-29 18:00:00 25. 25.
1993-01-30 00:00:00 25. 25.
1993-01-30 06:00:00 25. 25.
1993-01-30 12:00:00 25. 25.
1993-01-30 18:00:00 25. 25.
1993-01-31 00:00:00 25. 25.
jtwc_sh neumann
1993-01-31 06:00:00 25. 25.
1993-01-31 12:00:00 25. 25.
1993-01-31 18:00:00 25. 25.
1993-02-01 00:00:00 25. 25.
1993-02-01 06:00:00 30. 30.
1993-02-01 12:00:00 30. 30.
1993-02-01 18:00:00 30. 30.
1993-02-02 00:00:00 30. 30.
1993-02-02 06:00:00 30. 30.
1993-02-02 12:00:00 30. 30.
1993-02-02 18:00:00 30. 30.
1993-02-03 00:00:00 30. 30.
1993-02-03 06:00:00 30. 30.
1993-02-03 12:00:00 30. 30.
1993-02-03 18:00:00 30. 30.
1993-02-04 00:00:00 30. 30.
1993-02-04 06:00:00 30. 30.
1993-02-04 12:00:00 30. 30.
1993-02-04 18:00:00 30. 30.
1993-02-05 00:00:00 35. 35.
1993-02-05 06:00:00 35. 35.
1993-02-05 12:00:00 35. 35.
1993-02-05 18:00:00 35. 35.
1993-02-06 00:00:00 35. 35.
jtwc_sh neumann
1993-02-06 06:00:00 35. 35.
1993-02-06 12:00:00 35. 35.
1993-02-06 18:00:00 35. 35.
1993-02-07 00:00:00 30. 30.
1993-02-07 06:00:00 30. 30.
1993-02-07 12:00:00 25. 25.
1993-02-07 18:00:00 25. 25.
1993-02-08 00:00:00 25. 25.
1993-02-08 06:00:00 25. 25.
1993-02-08 12:00:00 25. 25.
1993-02-08 18:00:00 25. 25.
1993-02-09 00:00:00 25. 25.
1993-02-09 06:00:00 25. 25.
1993-02-09 12:00:00 25. 25.

top of page Links to source data

Source Source file Format
jtwc_sh bsh141993.txt ATCF
neumann tracks.sh:Storm=966:HSK1493:BSH141993:JTWC HURDAT